Glenshire, California
Current Conditions -  °F | °C
As of 2:50 PM on Thursday 20 Nov 2014 (Local Time) from KTRK Reporting Station
Overcast Overcast  
Wind Chill: 34°   Ceiling: 3800
Heat Index: 39°   Visibility: 10mi
Dew Point: 34°   Wind: 7mph
Humidity: 81%   Direction: 210°SSW
Pressure: 30"   Gusts: 21mph
Location:  39.3569°N, 120.175°W
Report Text: KTRK 202250Z 21006G18KT 10SM BKN038 OVC060 04/01 A3000 RMK NOSPECI
Loading
Personal Weather Stations






























Interactive Weather Map New forecast layout! Learn more

10-Day Weather Forecast

Advertisements
Track Severe Weather on mobile